Time;durP1;ratioP1;P1;durP2;ratioP2;P2;SDS_P1;SDS_P2;PMS_P1;PMS_P2;Temp;Humidity;BMP_temperature;BMP_pressure;BME280_temperature;BME280_humidity;BME280_pressure;Samples;Min_cycle;Max_cycle;Signal;HPM_P1;HPM_P2
2022/08/14 00:00:02;;;;;;;3.33;1.30;;;24.30;69.50;;;;;;5049559;28;20052;-73
2022/08/14 00:02:27;;;;;;;1.80;1.25;;;24.20;69.30;;;;;;5036314;28;20574;-73
2022/08/14 00:04:53;;;;;;;2.08;1.30;;;24.20;69.50;;;;;;5047748;28;20141;-72
2022/08/14 00:07:19;;;;;;;5.75;1.13;;;24.30;69.60;;;;;;5047851;28;20045;-72
2022/08/14 00:09:45;;;;;;;4.43;1.63;;;24.20;69.50;;;;;;5048088;28;20045;-72
2022/08/14 00:12:11;;;;;;;2.00;1.30;;;24.20;69.50;;;;;;5047131;28;20515;-72
2022/08/14 00:14:38;;;;;;;1.80;1.40;;;24.20;69.60;;;;;;5048084;28;20059;-72
2022/08/14 00:17:04;;;;;;;3.80;1.30;;;24.10;69.60;;;;;;5047082;28;20128;-73
2022/08/14 00:19:30;;;;;;;3.30;1.58;;;24.10;69.70;;;;;;5045873;28;20038;-73
2022/08/14 00:21:56;;;;;;;2.08;1.25;;;24.10;69.80;;;;;;5047560;28;20025;-73
2022/08/14 00:24:22;;;;;;;3.25;1.40;;;24.10;69.80;;;;;;5046858;28;20506;-73
2022/08/14 00:26:48;;;;;;;5.03;1.75;;;24.10;69.80;;;;;;5044254;28;20084;-72
2022/08/14 00:29:13;;;;;;;2.03;1.40;;;24.00;69.80;;;;;;5045589;28;20622;-72
2022/08/14 00:31:39;;;;;;;3.10;1.30;;;24.00;69.80;;;;;;5045540;28;20578;-72
2022/08/14 00:34:05;;;;;;;2.55;1.45;;;24.00;69.90;;;;;;5047872;28;20056;-72
2022/08/14 00:36:31;;;;;;;6.95;2.20;;;23.90;69.90;;;;;;5046369;28;20045;-73
2022/08/14 00:38:56;;;;;;;2.70;1.40;;;23.90;69.90;;;;;;5029004;28;20041;-73
2022/08/14 00:41:22;;;;;;;4.43;1.40;;;23.90;69.90;;;;;;5046857;28;20084;-73
2022/08/14 00:43:48;;;;;;;3.65;1.45;;;24.00;70.00;;;;;;5048564;28;20119;-72
2022/08/14 00:46:14;;;;;;;3.38;1.67;;;23.90;70.10;;;;;;5068445;28;20542;-73
2022/08/14 00:48:39;;;;;;;3.38;1.73;;;23.90;70.10;;;;;;5046926;28;20042;-72
2022/08/14 00:51:09;;;;;;;1.98;1.23;;;23.90;70.10;;;;;;5049353;28;20095;-72
2022/08/14 00:53:37;;;;;;;9.48;2.25;;;23.90;70.20;;;;;;5033826;28;20511;-72
2022/08/14 00:56:04;;;;;;;3.13;2.15;;;23.80;70.30;;;;;;5034398;28;20048;-73
2022/08/14 00:58:30;;;;;;;4.05;1.65;;;23.80;70.30;;;;;;5044344;28;20037;-72
2022/08/14 01:00:57;;;;;;;3.17;1.83;;;23.80;70.30;;;;;;5044782;28;20094;-73
2022/08/14 01:03:24;;;;;;;5.05;2.20;;;23.80;70.40;;;;;;5028954;28;20493;-73
2022/08/14 01:05:51;;;;;;;3.83;1.88;;;23.90;70.60;;;;;;5036545;28;20186;-73
2022/08/14 01:08:21;;;;;;;6.00;1.98;;;23.80;70.60;;;;;;5045983;28;20072;-74
2022/08/14 01:10:50;;;;;;;2.97;1.48;;;23.80;70.60;;;;;;5045787;28;20038;-73
2022/08/14 01:13:26;;;;;;;3.00;2.35;;;23.80;70.60;;;;;;5045698;28;20076;-73
2022/08/14 01:15:55;;;;;;;4.80;1.75;;;23.80;70.60;;;;;;5031359;28;20128;-73
2022/08/14 01:21:10;;;;;;;6.53;1.88;;;23.80;70.60;;;;;;5046999;28;20049;-73
2022/08/14 01:23:42;;;;;;;4.97;1.80;;;23.80;70.80;;;;;;5045930;28;20046;-73
2022/08/14 01:26:09;;;;;;;2.42;1.52;;;23.80;70.90;;;;;;5045381;28;20038;-73
2022/08/14 01:28:36;;;;;;;1.95;1.50;;;23.80;71.10;;;;;;5044857;28;20504;-73
2022/08/14 01:31:11;;;;;;;2.35;2.05;;;23.80;71.30;;;;;;5046733;28;20045;-73
2022/08/14 01:33:40;;;;;;;4.13;1.80;;;23.80;71.40;;;;;;5046618;28;20048;-73
2022/08/14 01:36:08;;;;;;;3.42;1.55;;;23.80;71.40;;;;;;5045404;28;20566;-73
2022/08/14 01:38:38;;;;;;;4.38;1.88;;;23.80;71.40;;;;;;5046675;28;20136;-73
2022/08/14 01:41:08;;;;;;;3.67;1.58;;;23.80;71.60;;;;;;5034892;28;20135;-73
2022/08/14 01:43:48;;;;;;;4.15;2.33;;;23.80;71.50;;;;;;5044487;28;21016;-73
2022/08/14 01:46:22;;;;;;;1.90;1.40;;;23.80;71.40;;;;;;5046596;28;20057;-73
2022/08/14 01:48:51;;;;;;;3.08;1.55;;;23.70;71.30;;;;;;5027788;28;20049;-72
2022/08/14 01:51:21;;;;;;;3.63;2.00;;;23.70;71.30;;;;;;5029144;28;20066;-72
2022/08/14 01:54:20;;;;;;;5.78;1.73;;;23.70;71.20;;;;;;5047496;28;20030;-72
2022/08/14 01:56:47;;;;;;;3.45;1.38;;;23.70;71.20;;;;;;5021492;28;20091;-72
2022/08/14 01:59:19;;;;;;;3.45;1.75;;;23.60;71.20;;;;;;5028158;28;20124;-73
2022/08/14 02:01:50;;;;;;;3.17;1.60;;;23.70;71.30;;;;;;5034807;28;20516;-73
2022/08/14 02:04:16;;;;;;;5.90;1.70;;;23.60;71.30;;;;;;5035498;28;20049;-73
2022/08/14 02:06:43;;;;;;;3.88;1.60;;;23.60;71.30;;;;;;5035189;28;20484;-72
2022/08/14 02:09:09;;;;;;;2.90;1.95;;;23.60;71.40;;;;;;5033972;28;20583;-73
2022/08/14 02:11:37;;;;;;;3.80;1.60;;;23.60;71.50;;;;;;5046593;28;20045;-72
2022/08/14 02:14:07;;;;;;;8.43;2.10;;;23.60;71.50;;;;;;5044960;28;20048;-73
2022/08/14 02:16:39;;;;;;;5.15;2.00;;;23.60;71.40;;;;;;5025919;28;20037;-73
2022/08/14 02:19:08;;;;;;;2.42;1.55;;;23.60;71.40;;;;;;5033361;28;20045;-73
2022/08/14 02:21:36;;;;;;;3.28;1.77;;;23.60;71.40;;;;;;5046982;28;20577;-73
2022/08/14 02:24:05;;;;;;;2.92;1.80;;;23.50;71.90;;;;;;5046415;28;20840;-73
2022/08/14 02:26:34;;;;;;;3.72;2.00;;;23.50;71.30;;;;;;5028578;28;20511;-73
2022/08/14 02:29:12;;;;;;;3.70;1.75;;;23.50;71.30;;;;;;5045035;28;20053;-73
2022/08/14 02:32:03;;;;;;;5.72;2.40;;;23.50;71.90;;;;;;5025877;28;20375;-72
2022/08/14 02:34:32;;;;;;;4.93;2.00;;;23.50;71.20;;;;;;5049648;28;20038;-73
2022/08/14 02:37:09;;;;;;;2.35;1.58;;;23.50;71.20;;;;;;5045227;28;20124;-73
2022/08/14 02:39:46;;;;;;;2.00;1.50;;;23.50;71.20;;;;;;5028012;28;20124;-73
2022/08/14 02:42:17;;;;;;;3.28;1.70;;;23.50;71.30;;;;;;5047177;28;20144;-73
2022/08/14 02:44:44;;;;;;;2.45;1.60;;;23.40;71.30;;;;;;5045744;28;20049;-73
2022/08/14 02:47:10;;;;;;;2.47;1.48;;;23.40;71.30;;;;;;5033707;28;20566;-73
2022/08/14 02:49:51;;;;;;;2.35;1.52;;;23.40;71.30;;;;;;5028767;28;20188;-73
2022/08/14 02:52:19;;;;;;;2.83;1.95;;;23.40;71.30;;;;;;5033672;28;20049;-72
2022/08/14 02:54:47;;;;;;;1.83;1.45;;;23.40;71.40;;;;;;5047255;28;22264;-72
2022/08/14 02:57:14;;;;;;;3.22;1.88;;;23.50;71.60;;;;;;5027723;28;20045;-72
2022/08/14 02:59:40;;;;;;;2.83;1.70;;;23.50;71.70;;;;;;5046794;28;20042;-72
2022/08/14 03:02:08;;;;;;;3.58;2.42;;;23.50;71.70;;;;;;5042101;28;20041;-72
2022/08/14 03:04:34;;;;;;;3.03;1.83;;;23.50;71.90;;;;;;5030973;28;20124;-72
2022/08/14 03:07:00;;;;;;;2.17;1.55;;;23.50;72.20;;;;;;5061330;28;20033;-72
2022/08/14 03:09:26;;;;;;;2.17;1.35;;;23.40;72.20;;;;;;5034867;28;20503;-72
2022/08/14 03:11:52;;;;;;;5.53;2.25;;;23.40;72.20;;;;;;5027168;28;20512;-72
2022/08/14 03:14:23;;;;;;;4.95;1.80;;;23.40;72.10;;;;;;5029584;28;20049;-72
2022/08/14 03:16:54;;;;;;;4.97;1.70;;;23.30;72.00;;;;;;5043402;28;20044;-72
2022/08/14 03:19:33;;;;;;;3.95;1.98;;;23.30;72.00;;;;;;5026369;28;20044;-73
2022/08/14 03:22:16;;;;;;;1.25;1.08;;;23.30;71.90;;;;;;5028208;28;20178;-72
2022/08/14 03:24:58;;;;;;;8.13;1.95;;;23.30;71.90;;;;;;5047855;28;20088;-72
2022/08/14 03:27:52;;;;;;;4.28;1.73;;;23.30;71.80;;;;;;5061538;28;20122;-72
2022/08/14 03:30:37;;;;;;;2.15;1.40;;;23.40;71.90;;;;;;5023918;28;20529;-72
2022/08/14 03:33:12;;;;;;;3.33;1.92;;;23.30;71.80;;;;;;5032259;28;20587;-72
2022/08/14 03:35:47;;;;;;;3.50;1.60;;;23.60;71.80;;;;;;5031438;28;20574;-72
2022/08/14 03:38:32;;;;;;;3.67;1.45;;;23.40;71.90;;;;;;5035105;28;20103;-73
2022/08/14 03:41:09;;;;;;;9.35;1.83;;;23.40;71.80;;;;;;5058302;28;20056;-72
2022/08/14 03:43:57;;;;;;;2.28;1.23;;;23.40;71.80;;;;;;5030049;28;20033;-73
2022/08/14 03:46:33;;;;;;;3.30;1.30;;;23.40;71.70;;;;;;5028178;28;20084;-73
2022/08/14 03:49:04;;;;;;;2.40;1.40;;;23.40;71.80;;;;;;5033865;28;20098;-72
2022/08/14 03:51:31;;;;;;;3.97;1.70;;;23.40;71.90;;;;;;5035189;28;20045;-73
2022/08/14 03:54:00;;;;;;;6.47;1.55;;;23.30;72.10;;;;;;5044260;28;20140;-73
2022/08/14 03:56:39;;;;;;;3.05;1.40;;;23.30;72.20;;;;;;5027232;28;20042;-72
2022/08/14 03:59:14;;;;;;;2.20;1.40;;;23.30;72.50;;;;;;5029244;28;20100;-72
2022/08/14 04:01:54;;;;;;;2.28;1.73;;;23.40;72.60;;;;;;5029991;28;20046;-73
2022/08/14 04:04:23;;;;;;;4.00;1.33;;;23.40;72.60;;;;;;5059291;28;20548;-72
2022/08/14 04:07:09;;;;;;;2.53;1.55;;;23.40;72.90;;;;;;5028905;28;20037;-73
2022/08/14 04:10:06;;;;;;;2.67;1.67;;;23.40;73.10;;;;;;5034130;28;20057;-72
2022/08/14 04:13:11;;;;;;;2.95;1.60;;;23.30;73.30;;;;;;5029081;28;20037;-72
2022/08/14 04:18:58;;;;;;;2.50;1.60;;;23.30;73.30;;;;;;5026427;28;20050;-72
2022/08/14 04:21:33;;;;;;;2.88;1.85;;;23.30;73.10;;;;;;5026451;28;20076;-72
2022/08/14 04:24:07;;;;;;;4.68;1.98;;;23.30;73.30;;;;;;5036311;28;20045;-72
2022/08/14 04:26:48;;;;;;;4.50;1.63;;;23.10;73.00;;;;;;5031511;28;20104;-72
2022/08/14 04:29:16;;;;;;;4.25;2.15;;;23.30;73.00;;;;;;5029179;28;20045;-72
2022/08/14 04:31:46;;;;;;;4.25;1.30;;;23.30;73.10;;;;;;5048261;28;20064;-72
2022/08/14 04:34:12;;;;;;;3.78;1.50;;;23.20;72.50;;;;;;5049607;28;20068;-72
2022/08/14 04:45:01;;;;;;;3.40;1.50;;;23.30;72.20;;;;;;5049763;28;20567;-73
2022/08/14 04:50:16;;;;;;;1.73;1.17;;;23.20;71.80;;;;;;5047903;28;20050;-72
2022/08/14 04:53:30;;;;;;;2.72;1.60;;;23.20;71.80;;;;;;5062174;28;20053;-72
2022/08/14 04:56:28;;;;;;;2.25;1.40;;;23.20;71.60;;;;;;4984404;28;20446;-72
2022/08/14 04:58:58;;;;;;;1.38;1.13;;;23.30;71.60;;;;;;5035761;28;20053;-72
2022/08/14 05:01:27;;;;;;;1.75;1.30;;;23.20;71.70;;;;;;5032597;28;20072;-72
2022/08/14 05:03:56;;;;;;;4.32;1.30;;;23.30;71.80;;;;;;5034675;28;20045;-72
2022/08/14 05:06:22;;;;;;;3.13;1.50;;;23.30;71.90;;;;;;5029115;28;20049;-72
2022/08/14 05:08:58;;;;;;;4.18;1.52;;;23.30;72.10;;;;;;5034509;28;20058;-72
2022/08/14 05:11:24;;;;;;;2.30;1.45;;;23.20;72.20;;;;;;5046611;28;20077;-73
2022/08/14 05:14:13;;;;;;;2.90;1.30;;;23.20;72.50;;;;;;5046054;28;20116;-73
2022/08/14 05:17:17;;;;;;;4.00;1.42;;;23.30;72.80;;;;;;5058170;28;20037;-73
2022/08/14 05:20:33;;;;;;;3.60;1.80;;;23.30;72.90;;;;;;5023165;28;20053;-71
2022/08/14 05:23:06;;;;;;;2.30;1.63;;;23.30;73.40;;;;;;5028395;28;20065;-75
2022/08/14 05:25:56;;;;;;;3.30;2.33;;;23.30;73.80;;;;;;5024534;28;20049;-74
2022/08/14 05:28:36;;;;;;;3.85;2.60;;;23.30;74.70;;;;;;5026946;28;20487;-75
2022/08/14 05:31:12;;;;;;;3.80;1.58;;;23.30;74.80;;;;;;5038548;28;20090;-73
2022/08/14 05:34:01;;;;;;;2.95;1.80;;;23.60;75.30;;;;;;5022934;28;20053;-73
2022/08/14 05:36:52;;;;;;;5.50;1.77;;;23.50;75.80;;;;;;5025920;28;20034;-73
2022/08/14 05:39:26;;;;;;;4.57;2.00;;;23.30;76.00;;;;;;5041973;28;20526;-74
2022/08/14 05:42:35;;;;;;;8.43;3.40;;;23.50;76.20;;;;;;5020149;28;20127;-74
2022/08/14 05:45:15;;;;;;;4.82;2.28;;;23.60;76.80;;;;;;5024328;28;20123;-74
2022/08/14 05:47:55;;;;;;;3.63;2.70;;;23.70;77.20;;;;;;5055326;28;20041;-73
2022/08/14 05:50:53;;;;;;;4.70;3.15;;;23.50;78.40;;;;;;5029704;28;20938;-74
2022/08/14 05:53:39;;;;;;;4.05;3.47;;;23.50;79.10;;;;;;5030358;28;20516;-73
2022/08/14 05:56:25;;;;;;;6.13;3.78;;;23.50;80.50;;;;;;5027302;28;20060;-74
2022/08/14 05:59:12;;;;;;;6.60;4.10;;;23.50;81.40;;;;;;5028114;28;20622;-73
2022/08/14 06:02:03;;;;;;;6.35;4.60;;;23.50;82.10;;;;;;5029950;28;20626;-75
2022/08/14 06:05:00;;;;;;;6.50;4.15;;;23.50;83.00;;;;;;5029410;28;20187;-73
2022/08/14 06:07:51;;;;;;;11.55;4.97;;;23.40;83.70;;;;;;5029870;28;20049;-77
2022/08/14 06:10:37;;;;;;;7.93;4.70;;;23.50;84.30;;;;;;5023763;28;20072;-74
2022/08/14 06:13:17;;;;;;;11.68;5.15;;;23.50;85.40;;;;;;5056780;28;20335;-74
2022/08/14 06:16:38;;;;;;;8.55;5.15;;;23.50;85.80;;;;;;5022902;28;20165;-73
2022/08/14 06:19:32;;;;;;;8.30;6.03;;;23.50;87.30;;;;;;5024978;28;20156;-75
2022/08/14 06:22:25;;;;;;;;;;;;;;;;;;;;;
2022/08/14 06:24:59;;;;;;;9.27;5.15;;;23.60;88.80;;;;;;5022362;28;40488;-76
2022/08/14 06:28:17;;;;;;;8.15;5.53;;;23.60;89.10;;;;;;5024706;28;20618;-76
2022/08/14 06:31:17;;;;;;;8.98;5.45;;;23.70;90.00;;;;;;5017560;28;20053;-75
2022/08/14 06:34:38;;;;;;;7.47;5.53;;;23.70;90.30;;;;;;5029806;28;20041;-76
2022/08/14 06:37:06;;;;;;;10.45;5.70;;;23.40;90.30;;;;;;5047920;28;20037;-75
2022/08/14 06:39:54;;;;;;;8.70;5.38;;;23.80;90.40;;;;;;5037315;28;20053;-74
2022/08/14 06:42:36;;;;;;;12.13;5.88;;;23.80;90.70;;;;;;5028589;28;20050;-74
2022/08/14 06:45:23;;;;;;;11.23;6.30;;;23.90;90.90;;;;;;5022290;28;20057;-72
2022/08/14 06:48:01;;;;;;;6.82;4.75;;;23.90;91.00;;;;;;5025970;28;20085;-75
2022/08/14 06:50:40;;;;;;;9.57;5.70;;;23.90;91.10;;;;;;5055313;28;20054;-74
2022/08/14 06:53:32;;;;;;;10.63;6.55;;;24.00;91.30;;;;;;5023935;28;20050;-76
2022/08/14 06:56:06;;;;;;;11.07;5.70;;;24.10;91.40;;;;;;5021504;28;20543;-74
2022/08/14 06:59:00;;;;;;;11.40;5.93;;;24.10;91.40;;;;;;5048198;28;20041;-78
2022/08/14 07:07:53;;;;;;;9.40;6.65;;;24.20;91.60;;;;;;5030960;28;20045;-80
2022/08/14 07:10:38;;;;;;;12.40;4.88;;;24.20;91.70;;;;;;5040735;28;20053;-74
2022/08/14 07:13:23;;;;;;;8.43;5.60;;;24.20;91.80;;;;;;5074368;28;20053;-75
2022/08/14 07:16:34;;;;;;;6.65;4.97;;;24.20;91.90;;;;;;5040166;28;20046;-75
2022/08/14 07:19:43;;;;;;;;;;;;;;;;;;;;;
2022/08/14 07:22:39;;;;;;;11.43;5.60;;;24.20;91.90;;;;;;5038881;28;38773;-75
2022/08/14 07:25:13;;;;;;;12.50;5.60;;;24.30;91.90;;;;;;4971525;28;20058;-75
2022/08/14 07:28:15;;;;;;;6.55;4.32;;;24.60;91.90;;;;;;4960468;28;20051;-75
2022/08/14 07:30:56;;;;;;;;;;;24.50;91.90;;;;;;4958231;28;20601;-76
2022/08/14 07:33:39;;;;;;;7.55;4.70;;;24.90;91.90;;;;;;4957384;28;20476;-74
2022/08/14 07:36:20;;;;;;;6.70;4.30;;;24.80;91.70;;;;;;4952791;28;20611;-75
2022/08/14 07:39:06;;;;;;;7.50;5.00;;;24.80;91.50;;;;;;4968062;28;20062;-75
2022/08/14 07:41:50;;;;;;;;;;;;;;;;;;;;;
2022/08/14 07:44:58;;;;;;;;;;;;;;;;;;;;;
2022/08/14 07:47:51;;;;;;;7.72;4.35;;;24.90;91.20;;;;;;4967818;28;42627;-73
2022/08/14 07:50:50;;;;;;;5.07;3.88;;;25.10;91.20;;;;;;4961484;28;20043;-76
2022/08/14 07:53:31;;;;;;;5.85;3.72;;;25.30;91.20;;;;;;4984172;28;20054;-75
2022/08/14 07:56:22;;;;;;;9.25;3.63;;;25.30;91.10;;;;;;4977887;28;20051;-75
2022/08/14 07:59:27;;;;;;;8.85;3.80;;;25.30;90.80;;;;;;5030170;28;20105;-75
2022/08/14 08:02:02;;;;;;;7.20;3.50;;;25.50;90.80;;;;;;5015190;28;20595;-75
2022/08/14 08:04:47;;;;;;;4.82;3.05;;;25.50;90.70;;;;;;5015711;28;20108;-75
2022/08/14 08:07:29;;;;;;;8.60;4.68;;;25.60;90.60;;;;;;5013852;28;20059;-76
2022/08/14 08:10:29;;;;;;;4.57;3.17;;;25.70;90.50;;;;;;5024933;28;20050;-75
2022/08/14 08:13:18;;;;;;;7.88;4.05;;;25.90;90.40;;;;;;5009204;28;20047;-74
2022/08/14 08:16:04;;;;;;;6.63;3.65;;;26.10;90.10;;;;;;5008577;28;21763;-74
2022/08/14 08:18:55;;;;;;;6.63;3.53;;;26.30;90.30;;;;;;5009910;28;20054;-75
2022/08/14 08:21:48;;;;;;;8.50;3.72;;;26.30;89.70;;;;;;5009876;28;20042;-74
2022/08/14 08:30:39;;;;;;;4.60;3.20;;;26.40;89.30;;;;;;5019162;28;20053;-75
2022/08/14 08:33:49;;;;;;;;;;;;;;;;;;;;;
2022/08/14 08:36:54;;;;;;;7.05;3.70;;;25.80;88.60;;;;;;5053670;28;43652;-74
2022/08/14 08:40:02;;;;;;;7.03;3.70;;;25.80;88.70;;;;;;5030742;28;20036;-74
2022/08/14 08:42:43;;;;;;;;;;;;;;;;;;;;;
2022/08/14 08:45:59;;;;;;;;;;;;;;;;;;;;;
2022/08/14 08:49:10;;;;;;;6.32;3.13;;;25.90;88.60;;;;;;5041167;28;42086;-75
2022/08/14 08:51:54;;;;;;;6.00;3.57;;;26.00;88.50;;;;;;4991721;28;20049;-75
2022/08/14 08:54:43;;;;;;;6.75;3.42;;;26.00;88.40;;;;;;4998700;28;20050;-74
2022/08/14 08:58:01;;;;;;;4.40;3.38;;;26.20;88.30;;;;;;5014647;28;20041;-74
2022/08/14 09:04:32;;;;;;;;;;;;;;;;;;;;;
2022/08/14 09:07:30;;;;;;;4.90;3.45;;;26.20;87.90;;;;;;5011556;28;38451;-75
2022/08/14 09:10:13;;;;;;;;;;;;;;;;;;;;;
2022/08/14 09:12:45;;;;;;;6.65;3.50;;;26.20;88.00;;;;;;5011223;28;42242;-75
2022/08/14 09:15:12;;;;;;;4.80;2.92;;;26.20;87.80;;;;;;5014839;28;20049;-75
2022/08/14 09:17:49;;;;;;;5.80;3.42;;;26.20;87.80;;;;;;5063522;28;20149;-75
2022/08/14 09:20:21;;;;;;;6.65;4.28;;;26.10;87.40;;;;;;5031392;28;20049;-75
2022/08/14 09:22:56;;;;;;;6.85;2.70;;;26.00;87.40;;;;;;5031975;28;20102;-75
2022/08/14 09:25:28;;;;;;;6.50;3.03;;;26.00;87.40;;;;;;5048455;28;20041;-75
2022/08/14 09:27:57;;;;;;;5.40;3.10;;;25.80;87.40;;;;;;5047741;28;20053;-76
2022/08/14 09:30:26;;;;;;;4.90;2.65;;;25.80;87.40;;;;;;5048538;28;20131;-75
2022/08/14 09:33:17;;;;;;;5.72;2.90;;;25.70;87.40;;;;;;5048084;28;20119;-75
2022/08/14 09:36:02;;;;;;;4.68;2.92;;;25.50;87.20;;;;;;5039311;28;20053;-75
2022/08/14 09:39:11;;;;;;;6.93;3.35;;;25.50;87.40;;;;;;5048171;28;20045;-75
2022/08/14 09:42:24;;;;;;;6.72;2.70;;;25.70;87.70;;;;;;5047932;28;20052;-75
2022/08/14 09:45:17;;;;;;;6.50;2.65;;;25.60;87.60;;;;;;5048367;28;20124;-75
2022/08/14 09:48:01;;;;;;;4.68;3.40;;;25.50;87.80;;;;;;5048457;28;20037;-75
2022/08/14 09:50:47;;;;;;;8.75;3.50;;;25.50;88.10;;;;;;5048451;28;20126;-77
2022/08/14 09:53:59;;;;;;;6.63;3.65;;;25.50;88.40;;;;;;5035932;28;20132;-76
2022/08/14 09:56:28;;;;;;;5.55;3.40;;;25.50;88.70;;;;;;5029737;28;20047;-75
2022/08/14 09:59:13;;;;;;;8.77;3.47;;;25.50;88.90;;;;;;5029424;28;20049;-75
2022/08/14 10:01:39;;;;;;;7.22;3.33;;;25.40;89.00;;;;;;5030340;28;20045;-75
2022/08/14 10:04:41;;;;;;;7.07;3.28;;;25.50;89.30;;;;;;5028647;28;20054;-75
2022/08/14 10:07:08;;;;;;;4.28;3.00;;;25.60;89.40;;;;;;5024760;28;20139;-75
2022/08/14 10:09:54;;;;;;;7.55;2.95;;;25.50;89.50;;;;;;5047991;28;20048;-75
2022/08/14 10:12:34;;;;;;;4.35;3.53;;;25.50;89.60;;;;;;5053600;28;20051;-75
2022/08/14 10:15:20;;;;;;;6.75;4.35;;;25.50;89.90;;;;;;5035670;28;20049;-75
2022/08/14 10:18:06;;;;;;;6.03;3.13;;;25.50;90.10;;;;;;5048332;28;20037;-76
2022/08/14 10:20:51;;;;;;;9.30;3.60;;;25.50;90.10;;;;;;5030386;28;20141;-75
2022/08/14 10:23:20;;;;;;;9.25;3.80;;;25.30;90.10;;;;;;5052998;28;20049;-75
2022/08/14 10:26:09;;;;;;;6.95;3.08;;;25.50;90.40;;;;;;5035899;28;20049;-75
2022/08/14 10:28:51;;;;;;;6.80;3.47;;;25.50;90.50;;;;;;5061955;28;20687;-74
2022/08/14 10:31:30;;;;;;;6.20;3.67;;;25.50;90.60;;;;;;5026986;28;20049;-75
2022/08/14 10:34:14;;;;;;;7.93;3.38;;;25.50;90.70;;;;;;5028514;28;20065;-75
2022/08/14 10:36:49;;;;;;;6.10;3.47;;;25.40;90.80;;;;;;5034036;28;20041;-75
2022/08/14 10:39:30;;;;;;;6.78;3.10;;;25.40;91.10;;;;;;5027893;28;20048;-75
2022/08/14 10:42:33;;;;;;;7.95;3.10;;;25.30;91.20;;;;;;5059949;28;20045;-76
2022/08/14 10:45:05;;;;;;;6.75;3.13;;;25.30;91.50;;;;;;5015912;28;20152;-75
2022/08/14 10:47:39;;;;;;;7.40;3.35;;;25.20;91.60;;;;;;5032829;28;20468;-75
2022/08/14 10:50:09;;;;;;;8.18;3.97;;;25.20;91.80;;;;;;5033429;28;20041;-75
2022/08/14 10:52:37;;;;;;;6.05;2.70;;;25.10;91.90;;;;;;5027588;28;21208;-75
2022/08/14 10:55:21;;;;;;;8.52;3.33;;;25.10;92.10;;;;;;5059618;28;20048;-75
2022/08/14 10:57:59;;;;;;;7.18;3.75;;;25.10;92.20;;;;;;5027398;28;20046;-75
2022/08/14 11:00:31;;;;;;;5.22;3.30;;;25.10;92.40;;;;;;5032732;28;20049;-75
2022/08/14 11:03:08;;;;;;;6.35;3.40;;;25.10;92.50;;;;;;5025160;28;20251;-75
2022/08/14 11:05:52;;;;;;;7.50;3.50;;;25.00;92.70;;;;;;5058819;28;20046;-74
2022/08/14 11:08:32;;;;;;;5.90;3.63;;;25.10;92.90;;;;;;5029655;28;20081;-75
2022/08/14 11:11:16;;;;;;;8.32;3.25;;;25.00;93.00;;;;;;5031559;28;20977;-75
2022/08/14 11:14:14;;;;;;;7.00;3.78;;;25.00;93.10;;;;;;5026849;28;20587;-75
2022/08/14 11:16:40;;;;;;;5.38;3.53;;;25.10;93.20;;;;;;5026295;28;20052;-75
2022/08/14 11:19:16;;;;;;;7.22;3.50;;;25.10;93.30;;;;;;5025050;28;20050;-75
2022/08/14 11:21:54;;;;;;;11.45;4.72;;;25.20;93.30;;;;;;5026872;28;20049;-75
2022/08/14 11:24:29;;;;;;;8.05;4.05;;;25.30;93.40;;;;;;5025709;28;20037;-75
2022/08/14 11:27:01;;;;;;;7.30;3.65;;;25.30;93.50;;;;;;5024342;28;20050;-75
2022/08/14 11:29:48;;;;;;;;;;;;;;;;;;;;;
2022/08/14 11:32:20;;;;;;;12.75;4.70;;;25.30;93.60;;;;;;5042094;28;41708;-75
2022/08/14 11:34:52;;;;;;;5.82;3.88;;;25.20;93.60;;;;;;5061655;28;20037;-75
2022/08/14 11:37:23;;;;;;;5.18;3.38;;;25.10;93.70;;;;;;5046597;28;20065;-75
2022/08/14 11:39:56;;;;;;;7.28;3.92;;;25.10;93.80;;;;;;5047509;28;20068;-75
2022/08/14 11:42:27;;;;;;;8.07;4.20;;;25.10;94.00;;;;;;5050641;28;20177;-75
2022/08/14 11:45:03;;;;;;;5.68;3.60;;;25.20;94.00;;;;;;5030212;28;20095;-75
2022/08/14 11:47:32;;;;;;;6.32;3.45;;;25.30;94.20;;;;;;5039160;28;21333;-75
2022/08/14 11:50:16;;;;;;;4.50;3.17;;;25.30;94.20;;;;;;5047531;28;20143;-75
2022/08/14 11:52:56;;;;;;;7.32;3.58;;;25.30;94.20;;;;;;5050330;28;20069;-74
2022/08/14 11:55:37;;;;;;;;;;;;;;;;;;;;;
2022/08/14 11:58:23;;;;;;;7.15;3.40;;;25.50;94.20;;;;;;5049255;28;39929;-74
2022/08/14 12:01:05;;;;;;;8.18;3.28;;;25.50;94.20;;;;;;5055455;28;20061;-75
2022/08/14 12:03:48;;;;;;;8.13;3.60;;;25.50;94.10;;;;;;5049514;28;20761;-75
2022/08/14 12:06:48;;;;;;;7.25;3.95;;;25.40;94.10;;;;;;5049367;28;20033;-75
2022/08/14 12:09:36;;;;;;;6.88;3.08;;;25.40;94.10;;;;;;5054546;28;20041;-75
2022/08/14 12:12:27;;;;;;;4.93;2.85;;;25.40;94.10;;;;;;5047254;28;20532;-75
2022/08/14 12:15:11;;;;;;;5.88;3.30;;;25.50;94.20;;;;;;5064224;28;20052;-75
2022/08/14 12:17:55;;;;;;;8.10;3.65;;;25.60;94.10;;;;;;5038267;28;20059;-75
2022/08/14 12:20:55;;;;;;;5.28;2.85;;;25.60;94.00;;;;;;5038553;28;20056;-75
2022/08/14 12:23:45;;;;;;;7.15;3.88;;;25.70;93.90;;;;;;5049292;28;20042;-75
2022/08/14 12:26:30;;;;;;;6.03;3.53;;;25.90;93.90;;;;;;5025467;28;20049;-75
2022/08/14 12:29:13;;;;;;;7.35;3.22;;;25.90;93.80;;;;;;5037980;28;20053;-75
2022/08/14 12:31:48;;;;;;;7.85;3.72;;;26.00;93.70;;;;;;5007542;28;20054;-75
2022/08/14 12:34:38;;;;;;;6.93;3.30;;;26.00;93.60;;;;;;5013913;28;20046;-75
2022/08/14 12:37:13;;;;;;;7.22;3.55;;;26.00;93.50;;;;;;4991941;28;20057;-75
2022/08/14 12:39:43;;;;;;;7.38;3.95;;;26.10;93.50;;;;;;4993323;28;20045;-75
2022/08/14 12:42:17;;;;;;;5.68;3.47;;;26.20;93.60;;;;;;5013734;28;20054;-75
2022/08/14 12:44:55;;;;;;;10.32;4.15;;;26.30;93.70;;;;;;4992151;28;20042;-75
2022/08/14 12:47:30;;;;;;;7.45;3.55;;;26.80;93.80;;;;;;5009113;28;20157;-76
2022/08/14 12:50:04;;;;;;;6.05;3.42;;;27.00;93.60;;;;;;5008073;28;20045;-75
2022/08/14 12:52:39;;;;;;;6.07;3.47;;;27.10;93.30;;;;;;4996402;28;20504;-75
2022/08/14 12:55:19;;;;;;;4.03;3.05;;;27.10;93.10;;;;;;4997326;28;21261;-75
2022/08/14 12:57:51;;;;;;;9.55;3.20;;;27.00;92.80;;;;;;4997477;28;20058;-75
2022/08/14 13:00:32;;;;;;;6.88;4.28;;;27.00;92.70;;;;;;4997508;28;20196;-75
2022/08/14 13:03:04;;;;;;;5.97;3.15;;;27.00;92.70;;;;;;5033745;28;20057;-76
2022/08/14 13:05:42;;;;;;;8.45;3.38;;;27.10;92.60;;;;;;5037373;28;20942;-75
2022/08/14 13:08:21;;;;;;;8.45;3.90;;;27.20;92.50;;;;;;5030868;28;20739;-75
2022/08/14 13:10:49;;;;;;;6.38;3.55;;;27.40;92.40;;;;;;5048944;28;20120;-76
2022/08/14 13:13:35;;;;;;;4.90;3.15;;;27.50;92.30;;;;;;5037541;28;20095;-75
2022/08/14 13:16:09;;;;;;;6.60;3.97;;;27.60;92.10;;;;;;5062105;28;20083;-75
2022/08/14 13:18:45;;;;;;;6.47;3.00;;;27.80;91.90;;;;;;5030231;28;20041;-75
2022/08/14 13:21:14;;;;;;;5.18;2.83;;;27.80;91.60;;;;;;5048544;28;20041;-76
2022/08/14 13:23:51;;;;;;;5.38;3.20;;;27.80;91.50;;;;;;5037550;28;20068;-76
2022/08/14 13:26:36;;;;;;;7.18;3.30;;;27.80;91.20;;;;;;5035503;28;20592;-75
2022/08/14 13:29:05;;;;;;;4.57;2.78;;;27.80;91.10;;;;;;5037485;28;20106;-74
2022/08/14 13:31:43;;;;;;;10.95;2.65;;;27.80;90.90;;;;;;5033624;28;20077;-75
2022/08/14 13:34:16;;;;;;;6.70;3.00;;;27.80;90.60;;;;;;5034155;28;20136;-75
2022/08/14 13:37:05;;;;;;;6.05;3.50;;;27.80;90.50;;;;;;5035050;28;20033;-76
2022/08/14 13:39:38;;;;;;;5.57;3.20;;;27.90;90.50;;;;;;5049237;28;20447;-75
2022/08/14 13:42:32;;;;;;;7.68;3.22;;;28.00;90.50;;;;;;5037708;28;20041;-76
2022/08/14 13:45:07;;;;;;;7.00;3.03;;;28.20;90.30;;;;;;5030036;28;20925;-75
2022/08/14 13:47:40;;;;;;;4.07;2.80;;;28.20;90.00;;;;;;5029333;28;20068;-75
2022/08/14 13:50:20;;;;;;;6.00;2.97;;;28.10;89.20;;;;;;5030061;28;20045;-75
2022/08/14 13:53:01;;;;;;;8.15;3.30;;;28.10;89.30;;;;;;5063058;28;20041;-75
2022/08/14 13:55:35;;;;;;;;;;;28.00;89.10;;;;;;5046007;28;20875;-76
2022/08/14 13:58:11;;;;;;;7.20;3.00;;;28.20;89.10;;;;;;5045528;28;20410;-75
2022/08/14 14:00:42;;;;;;;7.95;3.15;;;28.20;89.10;;;;;;5037060;28;21207;-76
2022/08/14 14:03:30;;;;;;;7.78;3.15;;;28.30;88.80;;;;;;5036444;28;20045;-75
2022/08/14 14:06:04;;;;;;;5.47;3.35;;;28.30;88.50;;;;;;5062429;28;20632;-75
2022/08/14 14:08:40;;;;;;;7.97;2.85;;;28.30;88.20;;;;;;5062717;28;20045;-75
2022/08/14 14:11:12;;;;;;;7.07;3.85;;;28.40;87.90;;;;;;5053033;28;21575;-75
2022/08/14 14:13:48;;;;;;;6.55;3.33;;;28.00;87.70;;;;;;5047641;28;20193;-76
2022/08/14 14:16:17;;;;;;;8.40;3.35;;;27.80;87.80;;;;;;5052366;28;20047;-75
2022/08/14 14:19:02;;;;;;;9.23;3.90;;;27.70;87.90;;;;;;5036504;28;20319;-75
2022/08/14 14:21:39;;;;;;;6.80;2.85;;;27.60;88.10;;;;;;5029842;28;20045;-75
2022/08/14 14:24:14;;;;;;;8.98;3.50;;;27.70;88.10;;;;;;5048182;28;20041;-75
2022/08/14 14:26:55;;;;;;;5.72;2.95;;;27.60;87.80;;;;;;5053783;28;20060;-76
2022/08/14 14:29:31;;;;;;;6.65;3.88;;;27.20;87.50;;;;;;5029741;28;20045;-76
2022/08/14 14:32:10;;;;;;;4.80;3.25;;;27.70;88.00;;;;;;5032261;28;20173;-76
2022/08/14 14:34:39;;;;;;;7.80;3.55;;;27.70;88.00;;;;;;5025792;28;20675;-75
2022/08/14 14:37:14;;;;;;;5.72;3.00;;;27.70;88.10;;;;;;5032925;28;20049;-76